createdAt,value
2022-10-01T00:02:07.515Z,93850.66
2022-10-01T00:04:37.478Z,93859.06
2022-10-01T00:07:09.828Z,93862.88
2022-10-01T00:09:38.717Z,93858.09
2022-10-01T00:12:06.350Z,93855.47
2022-10-01T00:14:33.779Z,93853.62
2022-10-01T00:17:01.442Z,93847.91
2022-10-01T00:19:28.824Z,93844.72
2022-10-01T00:21:56.102Z,93849.13
2022-10-01T00:24:24.030Z,93842.63
2022-10-01T00:26:51.917Z,93844.84
2022-10-01T00:29:20.108Z,93832.34
2022-10-01T00:31:48.115Z,93836.94
2022-10-01T00:34:15.637Z,93833.28
2022-10-01T00:36:43.362Z,93829.44
2022-10-01T00:39:12.233Z,93834.66
2022-10-01T00:41:40.552Z,93831.88
2022-10-01T00:44:32.475Z,93841.34
2022-10-01T00:47:20.384Z,93841.84
2022-10-01T00:49:50.857Z,93842.09
2022-10-01T00:52:25.020Z,93839.12
2022-10-01T00:54:58.280Z,93839.09
2022-10-01T00:57:27.697Z,93827.59
2022-10-01T01:00:00.150Z,93836.94
2022-10-01T01:02:27.869Z,93835.25
2022-10-01T01:04:56.312Z,93839.12
2022-10-01T01:07:24.183Z,93837.31
2022-10-01T01:09:55.205Z,93831.94
2022-10-01T01:13:02.047Z,93831.53
2022-10-01T01:15:48.313Z,93835.56
2022-10-01T01:18:31.926Z,93833.84
2022-10-01T01:21:14.366Z,93834.91
2022-10-01T01:23:54.251Z,93822.41
2022-10-01T01:26:55.042Z,93825.13
2022-10-01T01:29:53.004Z,93828.97
2022-10-01T01:32:32.965Z,93818.41
2022-10-01T01:35:04.712Z,93819.31
2022-10-01T01:37:38.147Z,93819.31
2022-10-01T01:40:12.437Z,93812.72
2022-10-01T01:42:44.219Z,93820.47
2022-10-01T01:45:17.788Z,93816.38
2022-10-01T01:47:46.715Z,93815.59
2022-10-01T01:50:16.810Z,93815.91
2022-10-01T01:52:44.201Z,93814.75
2022-10-01T01:55:11.894Z,93819.91
2022-10-01T01:57:44.300Z,93815.69
2022-10-01T02:00:13.044Z,93816.09
2022-10-01T02:02:47.079Z,93829.13
2022-10-01T02:05:19.262Z,93833.34
2022-10-01T02:08:03.770Z,93840.28
2022-10-01T02:10:34.173Z,93848.16
2022-10-01T02:13:35.290Z,93849.41
2022-10-01T02:16:19.288Z,93856.38
2022-10-01T02:18:57.786Z,93855.50
2022-10-01T02:21:35.535Z,93863.91
2022-10-01T02:24:31.882Z,93869.34
2022-10-01T02:27:04.144Z,93863.31
2022-10-01T02:29:34.912Z,93880.87
2022-10-01T02:32:02.832Z,93894.19
2022-10-01T02:34:31.863Z,93893.28
2022-10-01T02:37:03.439Z,93896.16
2022-10-01T02:39:34.742Z,93891.84
2022-10-01T02:42:04.312Z,93883.84
2022-10-01T02:44:38.274Z,93879.03
2022-10-01T02:47:21.708Z,93873.22
2022-10-01T02:49:51.204Z,93876.41
2022-10-01T02:52:31.986Z,93869.81
2022-10-01T02:55:07.744Z,93872.56
2022-10-01T02:57:36.971Z,93871.66
2022-10-01T03:00:11.407Z,93897.28
2022-10-01T03:02:39.928Z,93894.44
2022-10-01T03:05:08.303Z,93892.31
2022-10-01T03:07:36.444Z,93895.87
2022-10-01T03:10:05.987Z,93894.50
2022-10-01T03:12:33.582Z,93894.16
2022-10-01T03:15:01.359Z,93899.22
2022-10-01T03:17:29.709Z,93873.31
2022-10-01T03:19:58.088Z,93889.97
2022-10-01T03:22:25.534Z,93897.50
2022-10-01T03:24:54.097Z,93908.91
2022-10-01T03:27:22.704Z,93898.50
2022-10-01T03:29:50.410Z,93893.81
2022-10-01T03:32:18.431Z,93902.13
2022-10-01T03:34:46.974Z,93896.91
2022-10-01T03:37:14.465Z,93901.72
2022-10-01T03:39:43.282Z,93900.56
2022-10-01T03:42:11.890Z,93913.13
2022-10-01T03:44:39.744Z,93898.13
2022-10-01T03:47:08.214Z,93907.91
2022-10-01T03:49:38.162Z,93904.16
2022-10-01T03:52:06.819Z,93888.00
2022-10-01T03:54:34.680Z,93891.66
2022-10-01T03:57:02.768Z,93897.94
2022-10-01T03:59:30.127Z,93879.09
2022-10-01T04:01:58.256Z,93883.66
2022-10-01T04:04:26.726Z,93875.94
2022-10-01T04:06:54.662Z,93877.38
2022-10-01T04:09:25.631Z,93891.06
2022-10-01T04:11:53.580Z,93884.12
2022-10-01T04:14:21.049Z,93860.25
2022-10-01T04:16:50.759Z,93861.38
2022-10-01T04:19:19.697Z,93854.22
2022-10-01T04:21:47.181Z,93868.00
2022-10-01T04:24:14.648Z,93855.75
2022-10-01T04:26:42.681Z,93850.75
2022-10-01T04:29:10.100Z,93856.38
2022-10-01T04:31:38.009Z,93849.53
2022-10-01T04:34:07.208Z,93862.38
2022-10-01T04:36:34.855Z,93861.19
2022-10-01T04:39:03.020Z,93855.22
2022-10-01T04:41:31.912Z,93852.03
2022-10-01T04:44:00.862Z,93857.59
2022-10-01T04:46:30.664Z,93853.94
2022-10-01T04:48:58.842Z,93841.25
2022-10-01T04:51:26.402Z,93844.56
2022-10-01T04:53:54.065Z,93822.22
2022-10-01T04:56:21.981Z,93839.75
2022-10-01T04:58:49.498Z,93852.97
2022-10-01T05:01:17.351Z,93857.87
2022-10-01T05:03:45.614Z,93872.13
2022-10-01T05:06:13.137Z,93882.25
2022-10-01T05:08:41.340Z,93872.25
2022-10-01T05:11:10.514Z,93869.47
2022-10-01T05:13:38.158Z,93884.16
2022-10-01T05:16:06.166Z,93886.13
2022-10-01T05:18:35.579Z,93873.47
2022-10-01T05:21:07.596Z,93880.41
2022-10-01T05:23:35.346Z,93886.78
2022-10-01T05:26:05.921Z,93886.63
2022-10-01T05:28:34.737Z,93896.81
2022-10-01T05:31:07.530Z,93901.56
2022-10-01T05:33:35.255Z,93906.31
2022-10-01T05:36:07.019Z,93895.81
2022-10-01T05:38:37.434Z,93895.97
2022-10-01T05:41:05.952Z,93894.00
2022-10-01T05:43:33.479Z,93906.66
2022-10-01T05:46:02.288Z,93912.66
2022-10-01T05:48:37.269Z,93901.50
2022-10-01T05:51:08.455Z,93899.91
2022-10-01T05:53:37.900Z,93908.09
2022-10-01T05:56:07.097Z,93908.09
2022-10-01T05:58:34.963Z,93924.75
2022-10-01T06:01:05.135Z,93908.31
2022-10-01T06:03:33.476Z,93864.31
2022-10-01T06:06:01.723Z,93854.91
2022-10-01T06:08:29.473Z,93887.91
2022-10-01T06:11:02.063Z,93907.47
2022-10-01T06:13:29.838Z,93895.34
2022-10-01T06:15:59.183Z,93892.38
2022-10-01T06:18:27.532Z,93885.22
2022-10-01T06:20:54.955Z,93890.16
2022-10-01T06:23:23.664Z,93866.22
2022-10-01T06:25:51.599Z,93892.97
2022-10-01T06:28:19.466Z,93877.41
2022-10-01T06:30:47.703Z,93883.50
2022-10-01T06:33:17.337Z,93880.59
2022-10-01T06:35:50.057Z,93867.69
2022-10-01T06:38:20.300Z,93879.72
2022-10-01T06:41:14.648Z,93870.28
2022-10-01T06:43:42.462Z,93868.13
2022-10-01T06:46:11.340Z,93858.53
2022-10-01T06:48:38.722Z,93845.66
2022-10-01T06:51:06.720Z,93851.53
2022-10-01T06:53:34.716Z,93864.69
2022-10-01T06:56:10.939Z,93851.81
2022-10-01T06:58:38.773Z,93846.62
2022-10-01T07:01:06.292Z,93832.88
2022-10-01T07:03:34.331Z,93836.59
2022-10-01T07:06:05.504Z,93838.69
2022-10-01T07:08:33.562Z,93826.16
2022-10-01T07:11:03.320Z,93834.25
2022-10-01T07:13:31.665Z,93837.38
2022-10-01T07:15:59.353Z,93845.19
2022-10-01T07:18:29.931Z,93843.44
2022-10-01T07:20:58.095Z,93849.87
2022-10-01T07:23:25.605Z,93846.94
2022-10-01T07:25:53.797Z,93850.97
2022-10-01T07:28:26.215Z,93852.09
2022-10-01T07:31:04.025Z,93845.34
2022-10-01T07:33:31.853Z,93845.13
2022-10-01T07:36:04.662Z,93833.78
2022-10-01T07:38:33.824Z,93836.41
2022-10-01T07:41:03.142Z,93838.38
2022-10-01T07:43:34.865Z,93842.91
2022-10-01T07:46:03.719Z,93844.69
2022-10-01T07:48:31.311Z,93829.84
2022-10-01T07:50:58.970Z,93846.12
2022-10-01T07:53:28.934Z,93854.62
2022-10-01T07:55:57.008Z,93859.13
2022-10-01T07:58:25.226Z,93843.19
2022-10-01T08:00:58.908Z,93856.13
2022-10-01T08:03:26.995Z,93835.78
2022-10-01T08:05:54.859Z,93830.00
2022-10-01T08:08:22.755Z,93828.72
2022-10-01T08:10:50.801Z,93834.34
2022-10-01T08:13:19.212Z,93832.97
2022-10-01T08:15:53.697Z,93825.31
2022-10-01T08:18:22.925Z,93835.31
2022-10-01T08:20:50.799Z,93831.06
2022-10-01T08:23:18.837Z,93833.66
2022-10-01T08:25:48.151Z,93823.22
2022-10-01T08:28:16.716Z,93824.81
2022-10-01T08:30:44.213Z,93805.75
2022-10-01T08:33:14.648Z,93817.41
2022-10-01T08:35:43.867Z,93809.91
2022-10-01T08:38:12.867Z,93807.72
2022-10-01T08:40:48.063Z,93809.91
2022-10-01T08:43:30.947Z,93811.75
2022-10-01T08:46:06.277Z,93812.03
2022-10-01T08:48:47.805Z,93787.16
2022-10-01T08:51:35.470Z,93780.31
2022-10-01T08:54:35.543Z,93803.38
2022-10-01T08:57:06.802Z,93784.62
2022-10-01T09:03:09.235Z,93815.19
2022-10-01T09:05:55.855Z,93815.19
2022-10-01T09:08:45.093Z,93824.25
2022-10-01T09:11:54.142Z,93864.87
2022-10-01T09:14:37.669Z,93899.19
2022-10-01T09:17:42.004Z,93883.25
2022-10-01T09:20:30.695Z,93889.16
2022-10-01T09:23:12.707Z,93904.66
2022-10-01T09:25:41.199Z,93909.97
2022-10-01T09:28:21.742Z,93916.75
2022-10-01T09:30:55.978Z,93929.69
2022-10-01T09:33:30.988Z,93943.44
2022-10-01T09:36:10.457Z,93959.69
2022-10-01T09:38:48.567Z,93962.06
2022-10-01T09:41:16.300Z,93955.28
2022-10-01T09:43:44.583Z,93948.69
2022-10-01T09:46:17.353Z,93963.31
2022-10-01T09:48:56.850Z,93956.66
2022-10-01T09:51:41.253Z,93942.09
2022-10-01T09:54:19.559Z,93915.06
2022-10-01T09:56:53.814Z,93926.22
2022-10-01T09:59:27.584Z,93901.19
2022-10-01T10:01:59.311Z,93928.28
2022-10-01T10:04:27.908Z,93931.25
2022-10-01T10:07:06.261Z,93912.44
2022-10-01T10:09:36.025Z,93912.19
2022-10-01T10:12:03.899Z,93911.19
2022-10-01T10:14:35.770Z,93903.47
2022-10-01T10:17:12.982Z,93890.72
2022-10-01T10:19:41.498Z,93876.41
2022-10-01T10:22:13.929Z,93872.41
2022-10-01T10:24:41.692Z,93890.38
2022-10-01T10:27:27.005Z,93920.13
2022-10-01T10:30:15.005Z,93898.34
2022-10-01T10:32:44.943Z,93925.97
2022-10-01T10:35:17.412Z,93913.25
2022-10-01T10:37:49.366Z,93906.88
2022-10-01T10:40:28.462Z,93909.31
2022-10-01T10:42:59.755Z,93907.94
2022-10-01T10:45:39.046Z,93894.13
2022-10-01T10:48:15.539Z,93888.84
2022-10-01T10:50:45.719Z,93899.69
2022-10-01T10:53:24.626Z,93894.97
2022-10-01T10:56:01.292Z,93898.09
2022-10-01T10:58:33.437Z,93899.94
2022-10-01T11:01:16.528Z,93889.31
2022-10-01T11:03:57.964Z,93889.91
2022-10-01T11:06:25.639Z,93877.72
2022-10-01T11:09:05.109Z,93885.47
2022-10-01T11:12:00.318Z,93865.56
2022-10-01T11:15:01.849Z,93857.37
2022-10-01T11:18:09.633Z,93821.09
2022-10-01T11:20:52.157Z,93801.16
2022-10-01T11:23:57.123Z,93791.13
2022-10-01T11:26:53.596Z,93755.22
2022-10-01T11:29:48.353Z,93754.69
2022-10-01T11:32:42.797Z,93754.41
2022-10-01T11:35:34.556Z,93753.81
2022-10-01T11:38:33.317Z,93771.12
2022-10-01T11:41:20.039Z,93777.03
2022-10-01T11:44:19.082Z,93790.63
2022-10-01T11:46:46.544Z,93774.16
2022-10-01T11:49:29.738Z,93774.37
2022-10-01T11:52:23.780Z,93767.97
2022-10-01T11:55:22.026Z,93761.41
2022-10-01T11:58:16.003Z,93757.59
2022-10-01T12:00:54.938Z,93753.34
2022-10-01T12:03:25.629Z,93762.16
2022-10-01T12:05:56.685Z,93749.34
2022-10-01T12:08:30.503Z,93711.31
2022-10-01T12:11:11.957Z,93697.50
2022-10-01T12:13:45.669Z,93702.81
2022-10-01T12:16:13.260Z,93687.88
2022-10-01T12:18:51.956Z,93685.62
2022-10-01T12:21:30.579Z,93674.44
2022-10-01T12:24:05.640Z,93676.00
2022-10-01T12:26:41.787Z,93688.44
2022-10-01T12:29:36.523Z,93695.13
2022-10-01T12:32:24.421Z,93669.75
2022-10-01T12:35:26.363Z,93584.84
2022-10-01T12:38:28.272Z,93606.37
2022-10-01T12:41:11.319Z,93605.84
2022-10-01T12:43:57.169Z,93632.66
2022-10-01T12:46:53.332Z,93644.44
2022-10-01T12:49:35.948Z,93652.13
2022-10-01T12:52:16.019Z,93658.41
2022-10-01T12:54:51.862Z,93658.31
2022-10-01T12:57:40.741Z,93648.03
2022-10-01T13:00:25.239Z,93652.41
2022-10-01T13:03:18.847Z,93643.53
2022-10-01T13:05:46.450Z,93633.12
2022-10-01T13:08:17.503Z,93648.66
2022-10-01T13:10:54.253Z,93629.50
2022-10-01T13:13:26.506Z,93612.50
2022-10-01T13:16:30.230Z,93598.25
2022-10-01T13:19:08.484Z,93577.53
2022-10-01T13:22:08.063Z,93578.72
2022-10-01T13:25:01.533Z,93552.81
2022-10-01T13:27:42.672Z,93547.69
2022-10-01T13:30:22.503Z,93553.28
2022-10-01T13:32:53.570Z,93556.62
2022-10-01T13:35:21.664Z,93544.97
2022-10-01T13:40:27.153Z,93530.34
2022-10-01T13:43:00.203Z,93553.87
2022-10-01T13:45:40.542Z,93552.16
2022-10-01T13:48:11.452Z,93547.66
2022-10-01T13:50:40.361Z,93538.91
2022-10-01T13:53:21.042Z,93543.38
2022-10-01T13:55:49.036Z,93535.75
2022-10-01T13:58:31.718Z,93529.09
2022-10-01T14:01:03.833Z,93540.34
2022-10-01T14:03:36.811Z,93514.44
2022-10-01T14:06:07.995Z,93507.37
2022-10-01T14:09:01.203Z,93505.03
2022-10-01T14:11:51.658Z,93487.69
2022-10-01T14:14:52.002Z,93494.16
2022-10-01T14:17:28.240Z,93494.34
2022-10-01T14:19:57.718Z,93484.56
2022-10-01T14:22:49.659Z,93481.09
2022-10-01T14:25:39.474Z,93471.03
2022-10-01T14:28:16.809Z,93468.69
2022-10-01T14:31:13.299Z,93470.25
2022-10-01T14:33:56.358Z,93466.34
2022-10-01T14:36:35.506Z,93455.03
2022-10-01T14:39:24.465Z,93455.84
2022-10-01T14:41:55.223Z,93456.78
2022-10-01T14:44:37.518Z,93450.94
2022-10-01T14:47:20.747Z,93434.44
2022-10-01T14:49:49.358Z,93446.28
2022-10-01T14:52:20.422Z,93441.03
2022-10-01T14:54:57.503Z,93442.59
2022-10-01T14:57:28.718Z,93447.25
2022-10-01T14:59:58.348Z,93430.47
2022-10-01T15:02:27.961Z,93415.00
2022-10-01T15:04:57.413Z,93416.34
2022-10-01T15:07:32.879Z,93410.22
2022-10-01T15:10:08.489Z,93401.41
2022-10-01T15:12:41.635Z,93392.94
2022-10-01T15:15:19.791Z,93389.19
2022-10-01T15:17:48.605Z,93383.22
2022-10-01T15:20:18.296Z,93381.72
2022-10-01T15:22:49.370Z,93380.38
2022-10-01T15:25:22.489Z,93381.62
2022-10-01T15:27:50.426Z,93374.38
2022-10-01T15:30:18.891Z,93372.63
2022-10-01T15:32:51.220Z,93371.53
2022-10-01T15:35:22.343Z,93360.41
2022-10-01T15:37:52.556Z,93371.63
2022-10-01T15:40:35.900Z,93366.69
2022-10-01T15:43:15.028Z,93372.16
2022-10-01T15:45:44.231Z,93364.06
2022-10-01T15:48:30.482Z,93364.06
2022-10-01T15:51:27.708Z,93371.16
2022-10-01T15:54:09.366Z,93378.94
2022-10-01T15:56:37.789Z,93373.75
2022-10-01T15:59:25.828Z,93380.81
2022-10-01T16:01:53.796Z,93371.38
2022-10-01T16:04:21.904Z,93371.94
2022-10-01T16:06:53.136Z,93367.22
2022-10-01T16:09:24.073Z,93370.56
2022-10-01T16:12:03.390Z,93367.72
2022-10-01T16:14:41.112Z,93374.28
2022-10-01T16:17:18.056Z,93372.13
2022-10-01T16:19:55.076Z,93367.06
2022-10-01T16:22:29.062Z,93362.59
2022-10-01T16:25:01.749Z,93360.69
2022-10-01T16:27:44.289Z,93347.00
2022-10-01T16:30:23.152Z,93341.41
2022-10-01T16:32:50.765Z,93337.06
2022-10-01T16:35:26.031Z,93327.81
2022-10-01T16:37:57.112Z,93325.34
2022-10-01T16:40:33.890Z,93316.63
2022-10-01T16:43:02.740Z,93320.66
2022-10-01T16:45:36.904Z,93311.41
2022-10-01T16:48:15.854Z,93302.88
2022-10-01T16:50:46.645Z,93295.84
2022-10-01T16:53:17.291Z,93281.06
2022-10-01T16:55:46.432Z,93278.91
2022-10-01T16:58:14.081Z,93272.25
2022-10-01T17:00:42.171Z,93261.22
2022-10-01T17:03:19.151Z,93263.31
2022-10-01T17:05:47.262Z,93252.81
2022-10-01T17:08:16.069Z,93257.13
2022-10-01T17:10:58.590Z,93258.56
2022-10-01T17:13:28.269Z,93246.09
2022-10-01T17:15:56.459Z,93245.53
2022-10-01T17:18:24.003Z,93246.75
2022-10-01T17:20:51.997Z,93249.88
2022-10-01T17:23:21.922Z,93256.44
2022-10-01T17:25:50.141Z,93243.97
2022-10-01T17:28:20.476Z,93252.56
2022-10-01T17:30:49.454Z,93247.56
2022-10-01T17:33:19.624Z,93243.66
2022-10-01T17:35:54.898Z,93240.53
2022-10-01T17:38:23.277Z,93233.06
2022-10-01T17:40:56.449Z,93239.09
2022-10-01T17:43:24.665Z,93239.03
2022-10-01T17:46:01.177Z,93235.13
2022-10-01T17:48:29.338Z,93228.53
2022-10-01T17:51:03.721Z,93219.53
2022-10-01T17:53:39.852Z,93220.44
2022-10-01T17:56:14.755Z,93216.09
2022-10-01T17:58:45.558Z,93225.28
2022-10-01T18:01:17.263Z,93213.12
2022-10-01T18:03:45.608Z,93208.41
2022-10-01T18:06:16.419Z,93217.53
2022-10-01T18:08:55.172Z,93192.72
2022-10-01T18:11:26.587Z,93203.53
2022-10-01T18:13:54.044Z,93203.06
2022-10-01T18:16:22.743Z,93194.25
2022-10-01T18:21:45.181Z,93187.41
2022-10-01T18:24:13.443Z,93188.84
2022-10-01T18:26:41.810Z,93174.94
2022-10-01T18:29:15.554Z,93180.81
2022-10-01T18:31:45.296Z,93180.09
2022-10-01T18:34:39.035Z,93177.09
2022-10-01T18:37:39.831Z,93177.72
2022-10-01T18:40:40.023Z,93195.28
2022-10-01T18:43:18.119Z,93194.66
2022-10-01T18:46:23.032Z,93171.47
2022-10-01T18:49:06.447Z,93172.56
2022-10-01T18:52:01.428Z,93161.34
2022-10-01T18:54:48.627Z,93154.78
2022-10-01T18:57:50.843Z,93138.84
2022-10-01T19:00:24.860Z,93142.50
2022-10-01T19:03:01.401Z,93131.47
2022-10-01T19:06:09.847Z,93131.78
2022-10-01T19:09:03.108Z,93135.72
2022-10-01T19:11:53.424Z,93102.59
2022-10-01T19:15:25.785Z,93110.09
2022-10-01T19:18:21.105Z,93108.63
2022-10-01T19:21:02.876Z,93089.09
2022-10-01T19:23:47.627Z,93078.88
2022-10-01T19:26:29.094Z,93089.16
2022-10-01T19:29:40.329Z,93079.34
2022-10-01T19:32:12.722Z,93067.38
2022-10-01T19:35:03.447Z,93019.59
2022-10-01T19:37:41.388Z,93022.38
2022-10-01T19:40:35.123Z,93006.53
2022-10-01T19:43:21.772Z,93038.19
2022-10-01T19:46:09.402Z,93051.03
2022-10-01T19:49:04.574Z,93072.22
2022-10-01T19:51:43.886Z,93097.53
2022-10-01T19:54:19.920Z,93142.25
2022-10-01T19:56:54.635Z,93222.09
2022-10-01T19:59:22.321Z,93268.75
2022-10-01T20:01:59.228Z,93271.84
2022-10-01T20:04:30.624Z,93237.97
2022-10-01T20:07:10.247Z,93207.50
2022-10-01T20:10:05.774Z,93183.00
2022-10-01T20:12:55.959Z,93167.34
2022-10-01T20:15:42.650Z,93159.94
2022-10-01T20:18:27.790Z,93140.87
2022-10-01T20:21:14.600Z,93151.66
2022-10-01T20:23:53.913Z,93155.59
2022-10-01T20:26:45.492Z,93159.00
2022-10-01T20:29:32.480Z,93159.47
2022-10-01T20:32:23.646Z,93157.41
2022-10-01T20:35:06.218Z,93166.94
2022-10-01T20:37:40.081Z,93178.19
2022-10-01T20:40:25.252Z,93178.75
2022-10-01T20:43:22.056Z,93162.47
2022-10-01T20:45:52.764Z,93151.00
2022-10-01T20:48:23.302Z,93130.06
2022-10-01T20:50:54.196Z,93116.44
2022-10-01T20:53:31.054Z,93137.19
2022-10-01T20:56:08.243Z,93155.59
2022-10-01T20:58:44.693Z,93146.16
2022-10-01T21:01:20.759Z,93145.88
2022-10-01T21:03:57.610Z,93139.03
2022-10-01T21:06:40.037Z,93149.41
2022-10-01T21:09:14.640Z,93148.47
2022-10-01T21:11:48.050Z,93160.75
2022-10-01T21:14:41.121Z,93159.44
2022-10-01T21:17:24.911Z,93133.78
2022-10-01T21:20:02.307Z,93144.88
2022-10-01T21:23:03.345Z,93143.41
2022-10-01T21:25:50.941Z,93130.62
2022-10-01T21:28:52.844Z,93134.31
2022-10-01T21:31:42.617Z,93154.19
2022-10-01T21:34:30.078Z,93171.91
2022-10-01T21:37:40.679Z,93175.56
2022-10-01T21:40:43.279Z,93180.22
2022-10-01T21:43:32.434Z,93189.84
2022-10-01T21:46:23.548Z,93145.06
2022-10-01T21:49:19.540Z,93132.50
2022-10-01T21:51:58.671Z,93128.31
2022-10-01T21:55:05.503Z,93130.31
2022-10-01T21:57:43.497Z,93151.91
2022-10-01T22:00:21.968Z,93141.25
2022-10-01T22:03:17.499Z,93130.84
2022-10-01T22:06:13.027Z,93068.78
2022-10-01T22:08:59.904Z,93076.31
2022-10-01T22:11:32.034Z,93036.41
2022-10-01T22:14:03.774Z,92976.97
2022-10-01T22:16:40.062Z,92936.34
2022-10-01T22:19:17.476Z,92941.59
2022-10-01T22:21:48.144Z,93032.88
2022-10-01T22:24:33.940Z,93042.13
2022-10-01T22:27:16.583Z,93050.66
2022-10-01T22:30:08.245Z,93041.63
2022-10-01T22:32:59.795Z,93047.84
2022-10-01T22:35:35.518Z,93070.94
2022-10-01T22:38:11.528Z,93081.63
2022-10-01T22:40:46.021Z,93087.66
2022-10-01T22:43:14.579Z,93095.44
2022-10-01T22:45:48.939Z,93097.22
2022-10-01T22:48:50.355Z,93100.12
2022-10-01T22:51:23.862Z,93109.69
2022-10-01T22:54:30.263Z,93112.97
2022-10-01T22:57:07.959Z,93113.56
2022-10-01T23:00:06.524Z,93109.06
2022-10-01T23:02:45.736Z,93106.66
2022-10-01T23:05:56.141Z,93130.91
2022-10-01T23:08:40.641Z,93089.47
2022-10-01T23:11:29.187Z,93073.03
2022-10-01T23:14:01.295Z,93064.94
2022-10-01T23:16:59.148Z,93051.56
2022-10-01T23:19:33.215Z,93056.16
2022-10-01T23:22:01.271Z,93045.09
2022-10-01T23:24:35.679Z,93049.47
2022-10-01T23:27:21.766Z,93092.22
2022-10-01T23:30:08.200Z,93121.00
2022-10-01T23:33:17.633Z,93139.69
2022-10-01T23:36:06.543Z,93131.25
2022-10-01T23:38:46.915Z,93113.84
2022-10-01T23:41:25.026Z,93105.56
2022-10-01T23:43:55.775Z,93107.72
2022-10-01T23:46:33.244Z,93105.84
2022-10-01T23:49:15.537Z,93111.44
2022-10-01T23:51:53.038Z,93116.44
2022-10-01T23:55:18.381Z,93114.09
2022-10-01T23:57:48.588Z,93114.59
